sensor_id;sensor_type;location;lat;lon;timestamp;temperature;humidity
45685;DHT22;46836;48.388;16.210;2023-02-01T00:01:08;5.00;99.90
45685;DHT22;46836;48.388;16.210;2023-02-01T00:03:35;5.00;99.90
45685;DHT22;46836;48.388;16.210;2023-02-01T00:06:02;5.00;99.90
45685;DHT22;46836;48.388;16.210;2023-02-01T00:08:30;5.00;99.90
45685;DHT22;46836;48.388;16.210;2023-02-01T00:11:08;5.00;99.90
45685;DHT22;46836;48.388;16.210;2023-02-01T00:13:38;5.00;99.90
45685;DHT22;46836;48.388;16.210;2023-02-01T00:16:07;5.00;99.90
45685;DHT22;46836;48.388;16.210;2023-02-01T00:18:35;5.00;99.90
45685;DHT22;46836;48.388;16.210;2023-02-01T00:21:03;5.00;99.90
45685;DHT22;46836;48.388;16.210;2023-02-01T00:23:34;5.00;99.90
45685;DHT22;46836;48.388;16.210;2023-02-01T00:26:03;5.00;99.90
45685;DHT22;46836;48.388;16.210;2023-02-01T00:28:31;4.90;99.90
45685;DHT22;46836;48.388;16.210;2023-02-01T00:31:03;4.90;99.90
45685;DHT22;46836;48.388;16.210;2023-02-01T00:33:32;4.90;99.90
45685;DHT22;46836;48.388;16.210;2023-02-01T00:36:01;4.90;99.90
45685;DHT22;46836;48.388;16.210;2023-02-01T00:38:29;4.90;99.90
45685;DHT22;46836;48.388;16.210;2023-02-01T00:41:05;4.90;99.90
45685;DHT22;46836;48.388;16.210;2023-02-01T00:43:34;4.90;99.90
45685;DHT22;46836;48.388;16.210;2023-02-01T00:46:02;4.90;99.90
45685;DHT22;46836;48.388;16.210;2023-02-01T00:48:29;4.90;99.90
45685;DHT22;46836;48.388;16.210;2023-02-01T00:51:05;4.90;99.90
45685;DHT22;46836;48.388;16.210;2023-02-01T00:53:33;4.90;99.90
45685;DHT22;46836;48.388;16.210;2023-02-01T00:56:00;4.90;99.90
45685;DHT22;46836;48.388;16.210;2023-02-01T00:58:27;4.90;99.90
45685;DHT22;46836;48.388;16.210;2023-02-01T01:01:10;4.90;99.90
45685;DHT22;46836;48.388;16.210;2023-02-01T01:03:40;4.90;99.90
45685;DHT22;46836;48.388;16.210;2023-02-01T01:06:20;4.90;99.90
45685;DHT22;46836;48.388;16.210;2023-02-01T01:08:49;4.90;99.90
45685;DHT22;46836;48.388;16.210;2023-02-01T01:11:19;4.90;99.90
45685;DHT22;46836;48.388;16.210;2023-02-01T01:13:48;4.90;99.90
45685;DHT22;46836;48.388;16.210;2023-02-01T01:16:16;4.90;99.90
45685;DHT22;46836;48.388;16.210;2023-02-01T01:18:44;4.90;99.90
45685;DHT22;46836;48.388;16.210;2023-02-01T01:21:13;4.80;99.90
45685;DHT22;46836;48.388;16.210;2023-02-01T01:23:41;4.80;99.90
45685;DHT22;46836;48.388;16.210;2023-02-01T01:26:12;4.80;99.90
45685;DHT22;46836;48.388;16.210;2023-02-01T01:28:40;4.70;99.90
45685;DHT22;46836;48.388;16.210;2023-02-01T01:31:09;4.70;99.90
45685;DHT22;46836;48.388;16.210;2023-02-01T01:33:37;4.60;99.90
45685;DHT22;46836;48.388;16.210;2023-02-01T01:36:06;4.60;99.90
45685;DHT22;46836;48.388;16.210;2023-02-01T01:38:35;4.60;99.90
45685;DHT22;46836;48.388;16.210;2023-02-01T01:41:02;4.70;99.90
45685;DHT22;46836;48.388;16.210;2023-02-01T01:46:30;4.70;99.90
45685;DHT22;46836;48.388;16.210;2023-02-01T01:51:44;4.70;99.90
45685;DHT22;46836;48.388;16.210;2023-02-01T01:54:23;4.70;99.90
45685;DHT22;46836;48.388;16.210;2023-02-01T01:56:58;4.70;99.90
45685;DHT22;46836;48.388;16.210;2023-02-01T01:59:26;4.70;99.90
45685;DHT22;46836;48.388;16.210;2023-02-01T02:01:54;4.70;99.90
45685;DHT22;46836;48.388;16.210;2023-02-01T02:04:23;4.70;99.90
45685;DHT22;46836;48.388;16.210;2023-02-01T02:06:56;4.70;99.90
45685;DHT22;46836;48.388;16.210;2023-02-01T02:09:24;4.70;99.90
45685;DHT22;46836;48.388;16.210;2023-02-01T02:11:51;4.70;99.90
45685;DHT22;46836;48.388;16.210;2023-02-01T02:14:20;4.70;99.90
45685;DHT22;46836;48.388;16.210;2023-02-01T02:22:45;4.80;99.90
45685;DHT22;46836;48.388;16.210;2023-02-01T02:31:32;4.90;99.90
45685;DHT22;46836;48.388;16.210;2023-02-01T02:34:12;4.90;99.90
45685;DHT22;46836;48.388;16.210;2023-02-01T02:39:53;4.90;99.90
45685;DHT22;46836;48.388;16.210;2023-02-01T02:42:41;4.90;99.90
45685;DHT22;46836;48.388;16.210;2023-02-01T02:45:55;4.90;99.90
45685;DHT22;46836;48.388;16.210;2023-02-01T02:48:55;4.90;99.90
45685;DHT22;46836;48.388;16.210;2023-02-01T02:54:33;4.90;99.90
45685;DHT22;46836;48.388;16.210;2023-02-01T02:57:39;4.90;99.90
45685;DHT22;46836;48.388;16.210;2023-02-01T03:00:31;4.90;99.90
45685;DHT22;46836;48.388;16.210;2023-02-01T03:03:17;4.90;99.90
45685;DHT22;46836;48.388;16.210;2023-02-01T03:06:03;4.90;99.90
45685;DHT22;46836;48.388;16.210;2023-02-01T03:08:32;4.90;99.90
45685;DHT22;46836;48.388;16.210;2023-02-01T03:11:06;4.90;99.90
45685;DHT22;46836;48.388;16.210;2023-02-01T03:24:27;4.90;99.90
45685;DHT22;46836;48.388;16.210;2023-02-01T03:27:09;4.90;99.90
45685;DHT22;46836;48.388;16.210;2023-02-01T03:30:09;4.90;99.90
45685;DHT22;46836;48.388;16.210;2023-02-01T03:32:40;4.90;99.90
45685;DHT22;46836;48.388;16.210;2023-02-01T03:35:42;4.80;99.90
45685;DHT22;46836;48.388;16.210;2023-02-01T03:41:23;4.80;99.90
45685;DHT22;46836;48.388;16.210;2023-02-01T03:43:59;4.80;99.90
45685;DHT22;46836;48.388;16.210;2023-02-01T03:46:35;4.70;99.90
45685;DHT22;46836;48.388;16.210;2023-02-01T03:49:10;4.70;99.90
45685;DHT22;46836;48.388;16.210;2023-02-01T03:51:40;4.70;99.90
45685;DHT22;46836;48.388;16.210;2023-02-01T03:54:11;4.70;99.90
45685;DHT22;46836;48.388;16.210;2023-02-01T03:56:43;4.70;99.90
45685;DHT22;46836;48.388;16.210;2023-02-01T03:59:11;4.70;99.90
45685;DHT22;46836;48.388;16.210;2023-02-01T04:01:39;4.70;99.90
45685;DHT22;46836;48.388;16.210;2023-02-01T04:04:06;4.80;99.90
45685;DHT22;46836;48.388;16.210;2023-02-01T04:06:33;4.80;99.90
45685;DHT22;46836;48.388;16.210;2023-02-01T04:09:00;4.80;99.90
45685;DHT22;46836;48.388;16.210;2023-02-01T04:11:27;4.90;99.90
45685;DHT22;46836;48.388;16.210;2023-02-01T04:13:55;4.90;99.90
45685;DHT22;46836;48.388;16.210;2023-02-01T04:16:22;5.00;99.90
45685;DHT22;46836;48.388;16.210;2023-02-01T04:18:49;5.00;99.90
45685;DHT22;46836;48.388;16.210;2023-02-01T04:21:16;5.00;99.90
45685;DHT22;46836;48.388;16.210;2023-02-01T04:23:43;5.00;99.90
45685;DHT22;46836;48.388;16.210;2023-02-01T04:26:10;5.00;99.90
45685;DHT22;46836;48.388;16.210;2023-02-01T04:28:37;5.00;99.90
45685;DHT22;46836;48.388;16.210;2023-02-01T04:31:04;5.10;99.90
45685;DHT22;46836;48.388;16.210;2023-02-01T04:33:32;5.10;99.90
45685;DHT22;46836;48.388;16.210;2023-02-01T04:35:59;5.10;99.90
45685;DHT22;46836;48.388;16.210;2023-02-01T04:38:26;5.10;99.90
45685;DHT22;46836;48.388;16.210;2023-02-01T04:40:56;5.10;99.90
45685;DHT22;46836;48.388;16.210;2023-02-01T04:43:23;5.10;99.90
45685;DHT22;46836;48.388;16.210;2023-02-01T04:45:50;5.10;99.90
45685;DHT22;46836;48.388;16.210;2023-02-01T04:48:18;5.10;99.90
45685;DHT22;46836;48.388;16.210;2023-02-01T04:50:48;5.00;99.90
45685;DHT22;46836;48.388;16.210;2023-02-01T04:53:15;5.10;99.90
45685;DHT22;46836;48.388;16.210;2023-02-01T04:55:48;5.10;99.90
45685;DHT22;46836;48.388;16.210;2023-02-01T04:58:16;5.10;99.90
45685;DHT22;46836;48.388;16.210;2023-02-01T05:00:43;5.10;99.90
45685;DHT22;46836;48.388;16.210;2023-02-01T05:03:10;5.20;99.90
45685;DHT22;46836;48.388;16.210;2023-02-01T05:05:37;5.20;99.90
45685;DHT22;46836;48.388;16.210;2023-02-01T05:08:04;5.20;99.90
45685;DHT22;46836;48.388;16.210;2023-02-01T05:10:31;5.20;99.90
45685;DHT22;46836;48.388;16.210;2023-02-01T05:12:58;5.30;99.90
45685;DHT22;46836;48.388;16.210;2023-02-01T05:15:43;5.30;99.90
45685;DHT22;46836;48.388;16.210;2023-02-01T05:18:13;5.30;99.90
45685;DHT22;46836;48.388;16.210;2023-02-01T05:20:40;5.30;99.90
45685;DHT22;46836;48.388;16.210;2023-02-01T05:23:07;5.30;99.90
45685;DHT22;46836;48.388;16.210;2023-02-01T05:25:34;5.30;99.90
45685;DHT22;46836;48.388;16.210;2023-02-01T05:28:01;5.30;99.90
45685;DHT22;46836;48.388;16.210;2023-02-01T05:30:28;5.30;99.90
45685;DHT22;46836;48.388;16.210;2023-02-01T05:32:56;5.40;99.90
45685;DHT22;46836;48.388;16.210;2023-02-01T05:35:23;5.40;99.90
45685;DHT22;46836;48.388;16.210;2023-02-01T05:37:50;5.30;99.90
45685;DHT22;46836;48.388;16.210;2023-02-01T05:40:17;5.40;99.90
45685;DHT22;46836;48.388;16.210;2023-02-01T05:42:44;5.40;99.90
45685;DHT22;46836;48.388;16.210;2023-02-01T05:45:11;5.40;99.90
45685;DHT22;46836;48.388;16.210;2023-02-01T05:47:38;5.40;99.90
45685;DHT22;46836;48.388;16.210;2023-02-01T05:50:06;5.40;99.90
45685;DHT22;46836;48.388;16.210;2023-02-01T05:52:34;5.40;99.90
45685;DHT22;46836;48.388;16.210;2023-02-01T05:55:01;5.30;99.90
45685;DHT22;46836;48.388;16.210;2023-02-01T05:57:28;5.30;99.90
45685;DHT22;46836;48.388;16.210;2023-02-01T05:59:56;5.30;99.90
45685;DHT22;46836;48.388;16.210;2023-02-01T06:02:25;5.30;99.90
45685;DHT22;46836;48.388;16.210;2023-02-01T06:04:53;5.30;99.90
45685;DHT22;46836;48.388;16.210;2023-02-01T06:07:20;5.30;99.90
45685;DHT22;46836;48.388;16.210;2023-02-01T06:09:48;5.40;99.90
45685;DHT22;46836;48.388;16.210;2023-02-01T06:12:15;5.40;99.90
45685;DHT22;46836;48.388;16.210;2023-02-01T06:14:42;5.40;99.90
45685;DHT22;46836;48.388;16.210;2023-02-01T06:17:10;5.40;99.90
45685;DHT22;46836;48.388;16.210;2023-02-01T06:19:37;5.40;99.90
45685;DHT22;46836;48.388;16.210;2023-02-01T06:22:04;5.40;99.90
45685;DHT22;46836;48.388;16.210;2023-02-01T06:24:32;5.40;99.90
45685;DHT22;46836;48.388;16.210;2023-02-01T06:26:59;5.50;99.90
45685;DHT22;46836;48.388;16.210;2023-02-01T06:29:26;5.50;99.90
45685;DHT22;46836;48.388;16.210;2023-02-01T06:31:54;5.50;99.90
45685;DHT22;46836;48.388;16.210;2023-02-01T06:34:21;5.50;99.90
45685;DHT22;46836;48.388;16.210;2023-02-01T06:36:49;5.50;99.90
45685;DHT22;46836;48.388;16.210;2023-02-01T06:39:17;5.50;99.90
45685;DHT22;46836;48.388;16.210;2023-02-01T06:41:48;5.60;99.90
45685;DHT22;46836;48.388;16.210;2023-02-01T06:44:16;5.60;99.90
45685;DHT22;46836;48.388;16.210;2023-02-01T06:46:43;5.60;99.90
45685;DHT22;46836;48.388;16.210;2023-02-01T06:49:11;5.70;99.90
45685;DHT22;46836;48.388;16.210;2023-02-01T06:51:38;5.70;99.90
45685;DHT22;46836;48.388;16.210;2023-02-01T06:54:05;5.70;99.90
45685;DHT22;46836;48.388;16.210;2023-02-01T06:56:32;5.70;99.90
45685;DHT22;46836;48.388;16.210;2023-02-01T06:58:59;5.70;99.90
45685;DHT22;46836;48.388;16.210;2023-02-01T07:01:27;5.70;99.90
45685;DHT22;46836;48.388;16.210;2023-02-01T07:03:54;5.70;99.90
45685;DHT22;46836;48.388;16.210;2023-02-01T07:06:21;5.70;99.90
45685;DHT22;46836;48.388;16.210;2023-02-01T07:08:48;5.70;99.90
45685;DHT22;46836;48.388;16.210;2023-02-01T07:11:17;5.80;99.90
45685;DHT22;46836;48.388;16.210;2023-02-01T07:13:45;5.80;99.90
45685;DHT22;46836;48.388;16.210;2023-02-01T07:16:15;5.80;99.90
45685;DHT22;46836;48.388;16.210;2023-02-01T07:18:43;5.80;99.90
45685;DHT22;46836;48.388;16.210;2023-02-01T07:21:11;5.80;99.90
45685;DHT22;46836;48.388;16.210;2023-02-01T07:23:38;5.80;99.90
45685;DHT22;46836;48.388;16.210;2023-02-01T07:26:07;5.80;99.90
45685;DHT22;46836;48.388;16.210;2023-02-01T07:28:35;5.80;99.90
45685;DHT22;46836;48.388;16.210;2023-02-01T07:31:08;5.80;99.90
45685;DHT22;46836;48.388;16.210;2023-02-01T07:33:36;5.80;99.90
45685;DHT22;46836;48.388;16.210;2023-02-01T07:36:05;5.80;99.90
45685;DHT22;46836;48.388;16.210;2023-02-01T07:38:32;5.80;99.90
45685;DHT22;46836;48.388;16.210;2023-02-01T07:41:04;5.80;99.90
45685;DHT22;46836;48.388;16.210;2023-02-01T07:43:32;5.80;99.90
45685;DHT22;46836;48.388;16.210;2023-02-01T07:46:03;5.90;99.90
45685;DHT22;46836;48.388;16.210;2023-02-01T07:48:31;5.90;99.90
45685;DHT22;46836;48.388;16.210;2023-02-01T07:53:29;5.90;99.90
45685;DHT22;46836;48.388;16.210;2023-02-01T07:55:57;5.90;99.90
45685;DHT22;46836;48.388;16.210;2023-02-01T07:58:25;6.00;99.90
45685;DHT22;46836;48.388;16.210;2023-02-01T08:00:53;6.00;99.90
45685;DHT22;46836;48.388;16.210;2023-02-01T08:03:39;6.10;99.90
45685;DHT22;46836;48.388;16.210;2023-02-01T08:06:06;6.10;99.90
45685;DHT22;46836;48.388;16.210;2023-02-01T08:08:34;6.10;99.90
45685;DHT22;46836;48.388;16.210;2023-02-01T08:11:03;6.20;99.90
45685;DHT22;46836;48.388;16.210;2023-02-01T08:13:31;6.20;99.90
45685;DHT22;46836;48.388;16.210;2023-02-01T08:15:59;6.20;99.90
45685;DHT22;46836;48.388;16.210;2023-02-01T08:18:26;6.20;99.90
45685;DHT22;46836;48.388;16.210;2023-02-01T08:20:53;6.20;99.90
45685;DHT22;46836;48.388;16.210;2023-02-01T08:23:22;6.20;99.90
45685;DHT22;46836;48.388;16.210;2023-02-01T08:25:49;6.30;99.90
45685;DHT22;46836;48.388;16.210;2023-02-01T08:28:16;6.30;99.90
45685;DHT22;46836;48.388;16.210;2023-02-01T08:30:43;6.30;99.90
45685;DHT22;46836;48.388;16.210;2023-02-01T08:33:10;6.40;99.90
45685;DHT22;46836;48.388;16.210;2023-02-01T08:35:38;6.40;99.90
45685;DHT22;46836;48.388;16.210;2023-02-01T08:38:10;6.40;99.90
45685;DHT22;46836;48.388;16.210;2023-02-01T08:40:37;6.40;99.90
45685;DHT22;46836;48.388;16.210;2023-02-01T08:43:04;6.50;99.90
45685;DHT22;46836;48.388;16.210;2023-02-01T08:45:31;6.50;99.90
45685;DHT22;46836;48.388;16.210;2023-02-01T08:47:59;6.50;99.90
45685;DHT22;46836;48.388;16.210;2023-02-01T08:50:26;6.50;99.90
45685;DHT22;46836;48.388;16.210;2023-02-01T08:52:54;6.50;99.90
45685;DHT22;46836;48.388;16.210;2023-02-01T08:55:21;6.50;99.90
45685;DHT22;46836;48.388;16.210;2023-02-01T08:57:48;6.50;99.90
45685;DHT22;46836;48.388;16.210;2023-02-01T09:00:16;6.50;99.90
45685;DHT22;46836;48.388;16.210;2023-02-01T09:02:44;6.50;99.90
45685;DHT22;46836;48.388;16.210;2023-02-01T09:05:11;6.50;99.90
45685;DHT22;46836;48.388;16.210;2023-02-01T09:07:38;6.50;99.90
45685;DHT22;46836;48.388;16.210;2023-02-01T09:10:06;6.50;99.90
45685;DHT22;46836;48.388;16.210;2023-02-01T09:12:34;6.50;99.90
45685;DHT22;46836;48.388;16.210;2023-02-01T09:15:02;6.50;99.90
45685;DHT22;46836;48.388;16.210;2023-02-01T09:17:30;6.50;99.90
45685;DHT22;46836;48.388;16.210;2023-02-01T09:19:57;6.50;99.90
45685;DHT22;46836;48.388;16.210;2023-02-01T09:22:24;6.50;99.90
45685;DHT22;46836;48.388;16.210;2023-02-01T09:24:52;6.50;99.90
45685;DHT22;46836;48.388;16.210;2023-02-01T09:27:21;6.50;99.90
45685;DHT22;46836;48.388;16.210;2023-02-01T09:29:48;6.50;99.90
45685;DHT22;46836;48.388;16.210;2023-02-01T09:32:25;6.50;99.90
45685;DHT22;46836;48.388;16.210;2023-02-01T09:34:52;6.50;99.90
45685;DHT22;46836;48.388;16.210;2023-02-01T09:37:20;6.50;99.90
45685;DHT22;46836;48.388;16.210;2023-02-01T09:39:47;6.50;99.90
45685;DHT22;46836;48.388;16.210;2023-02-01T09:42:49;6.50;99.90
45685;DHT22;46836;48.388;16.210;2023-02-01T09:45:35;6.50;99.90
45685;DHT22;46836;48.388;16.210;2023-02-01T09:48:17;6.50;99.90
45685;DHT22;46836;48.388;16.210;2023-02-01T09:50:55;6.50;99.90
45685;DHT22;46836;48.388;16.210;2023-02-01T10:01:32;6.60;99.90
45685;DHT22;46836;48.388;16.210;2023-02-01T10:04:12;6.60;99.90
45685;DHT22;46836;48.388;16.210;2023-02-01T10:07:10;6.70;99.90
45685;DHT22;46836;48.388;16.210;2023-02-01T10:12:44;6.60;99.90
45685;DHT22;46836;48.388;16.210;2023-02-01T10:15:22;6.70;99.90
45685;DHT22;46836;48.388;16.210;2023-02-01T10:20:46;6.70;99.90
45685;DHT22;46836;48.388;16.210;2023-02-01T10:26:19;6.80;99.90
45685;DHT22;46836;48.388;16.210;2023-02-01T10:28:53;6.90;99.90
45685;DHT22;46836;48.388;16.210;2023-02-01T10:31:26;6.90;99.90
45685;DHT22;46836;48.388;16.210;2023-02-01T10:33:59;6.90;99.90
45685;DHT22;46836;48.388;16.210;2023-02-01T10:36:36;6.80;99.90
45685;DHT22;46836;48.388;16.210;2023-02-01T10:39:11;6.90;99.90
45685;DHT22;46836;48.388;16.210;2023-02-01T10:41:40;6.90;99.90
45685;DHT22;46836;48.388;16.210;2023-02-01T10:44:19;6.90;99.90
45685;DHT22;46836;48.388;16.210;2023-02-01T10:46:50;6.80;99.90
45685;DHT22;46836;48.388;16.210;2023-02-01T10:49:37;6.80;99.90
45685;DHT22;46836;48.388;16.210;2023-02-01T10:52:58;6.80;99.90
45685;DHT22;46836;48.388;16.210;2023-02-01T10:57:59;6.90;99.90
45685;DHT22;46836;48.388;16.210;2023-02-01T11:00:27;6.90;99.90
45685;DHT22;46836;48.388;16.210;2023-02-01T11:02:54;7.00;99.90
45685;DHT22;46836;48.388;16.210;2023-02-01T11:05:24;7.10;99.90
45685;DHT22;46836;48.388;16.210;2023-02-01T11:07:54;7.30;99.90
45685;DHT22;46836;48.388;16.210;2023-02-01T11:10:44;7.40;99.90
45685;DHT22;46836;48.388;16.210;2023-02-01T11:13:18;7.40;99.90
45685;DHT22;46836;48.388;16.210;2023-02-01T11:15:46;7.40;99.90
45685;DHT22;46836;48.388;16.210;2023-02-01T11:18:28;7.40;99.90
45685;DHT22;46836;48.388;16.210;2023-02-01T11:20:56;7.20;99.90
45685;DHT22;46836;48.388;16.210;2023-02-01T11:23:27;7.20;99.90
45685;DHT22;46836;48.388;16.210;2023-02-01T11:25:57;7.20;99.90
45685;DHT22;46836;48.388;16.210;2023-02-01T11:28:31;7.20;99.90
45685;DHT22;46836;48.388;16.210;2023-02-01T11:31:02;7.10;99.90
45685;DHT22;46836;48.388;16.210;2023-02-01T11:33:31;7.00;99.90
45685;DHT22;46836;48.388;16.210;2023-02-01T11:36:21;7.00;99.90
45685;DHT22;46836;48.388;16.210;2023-02-01T11:42:05;6.80;99.90
45685;DHT22;46836;48.388;16.210;2023-02-01T11:44:43;6.70;99.90
45685;DHT22;46836;48.388;16.210;2023-02-01T11:47:24;6.60;99.90
45685;DHT22;46836;48.388;16.210;2023-02-01T11:50:00;6.60;99.90
45685;DHT22;46836;48.388;16.210;2023-02-01T11:55:52;6.50;99.90
45685;DHT22;46836;48.388;16.210;2023-02-01T12:09:09;6.60;99.90
45685;DHT22;46836;48.388;16.210;2023-02-01T12:20:08;6.80;99.90
45685;DHT22;46836;48.388;16.210;2023-02-01T12:30:45;6.90;99.90
45685;DHT22;46836;48.388;16.210;2023-02-01T12:36:07;7.20;99.90
45685;DHT22;46836;48.388;16.210;2023-02-01T12:38:53;7.30;99.90
45685;DHT22;46836;48.388;16.210;2023-02-01T12:44:19;7.40;99.90
45685;DHT22;46836;48.388;16.210;2023-02-01T12:46:58;7.50;99.90
45685;DHT22;46836;48.388;16.210;2023-02-01T12:49:48;7.80;99.90
45685;DHT22;46836;48.388;16.210;2023-02-01T12:52:49;8.00;99.90
45685;DHT22;46836;48.388;16.210;2023-02-01T12:55:55;8.30;99.90
45685;DHT22;46836;48.388;16.210;2023-02-01T12:58:31;8.40;99.90
45685;DHT22;46836;48.388;16.210;2023-02-01T13:01:09;8.50;99.90
45685;DHT22;46836;48.388;16.210;2023-02-01T13:06:24;8.60;99.90
45685;DHT22;46836;48.388;16.210;2023-02-01T13:11:50;8.60;99.90
45685;DHT22;46836;48.388;16.210;2023-02-01T13:14:27;8.70;99.90
45685;DHT22;46836;48.388;16.210;2023-02-01T13:17:23;8.80;99.90
45685;DHT22;46836;48.388;16.210;2023-02-01T13:20:21;8.70;99.90
45685;DHT22;46836;48.388;16.210;2023-02-01T13:22:59;8.70;99.90
45685;DHT22;46836;48.388;16.210;2023-02-01T13:25:47;8.70;99.90
45685;DHT22;46836;48.388;16.210;2023-02-01T13:28:29;8.70;99.90
45685;DHT22;46836;48.388;16.210;2023-02-01T13:42:28;8.80;99.90
45685;DHT22;46836;48.388;16.210;2023-02-01T13:45:13;8.80;99.90
45685;DHT22;46836;48.388;16.210;2023-02-01T13:47:43;8.80;99.90
45685;DHT22;46836;48.388;16.210;2023-02-01T13:52:50;8.80;99.90
45685;DHT22;46836;48.388;16.210;2023-02-01T13:57:51;8.80;99.90
45685;DHT22;46836;48.388;16.210;2023-02-01T14:00:32;8.80;99.90
45685;DHT22;46836;48.388;16.210;2023-02-01T14:10:49;8.80;99.90
45685;DHT22;46836;48.388;16.210;2023-02-01T14:16:15;8.80;99.90
45685;DHT22;46836;48.388;16.210;2023-02-01T14:44:48;8.20;99.90
45685;DHT22;46836;48.388;16.210;2023-02-01T14:47:28;8.20;99.90
45685;DHT22;46836;48.388;16.210;2023-02-01T14:50:17;8.20;99.90
45685;DHT22;46836;48.388;16.210;2023-02-01T14:52:51;8.20;99.90
45685;DHT22;46836;48.388;16.210;2023-02-01T15:01:30;8.20;99.90
45685;DHT22;46836;48.388;16.210;2023-02-01T15:04:13;8.10;99.90
45685;DHT22;46836;48.388;16.210;2023-02-01T15:07:05;8.10;99.90
45685;DHT22;46836;48.388;16.210;2023-02-01T15:09:42;8.00;99.90
45685;DHT22;46836;48.388;16.210;2023-02-01T15:15:13;7.90;99.90
45685;DHT22;46836;48.388;16.210;2023-02-01T15:17:41;7.80;99.90
45685;DHT22;46836;48.388;16.210;2023-02-01T15:20:23;7.80;99.90
45685;DHT22;46836;48.388;16.210;2023-02-01T15:23:05;7.80;99.90
45685;DHT22;46836;48.388;16.210;2023-02-01T15:25:35;7.60;99.90
45685;DHT22;46836;48.388;16.210;2023-02-01T15:28:04;7.40;99.90
45685;DHT22;46836;48.388;16.210;2023-02-01T15:30:35;7.30;99.90
45685;DHT22;46836;48.388;16.210;2023-02-01T15:35:49;7.10;99.90
45685;DHT22;46836;48.388;16.210;2023-02-01T15:41:14;6.90;99.90
45685;DHT22;46836;48.388;16.210;2023-02-01T15:43:43;6.80;99.90
45685;DHT22;46836;48.388;16.210;2023-02-01T15:46:17;6.70;99.90
45685;DHT22;46836;48.388;16.210;2023-02-01T15:48:53;6.50;99.90
45685;DHT22;46836;48.388;16.210;2023-02-01T15:51:23;6.50;99.90
45685;DHT22;46836;48.388;16.210;2023-02-01T15:53:56;6.40;99.90
45685;DHT22;46836;48.388;16.210;2023-02-01T15:56:36;6.30;99.90
45685;DHT22;46836;48.388;16.210;2023-02-01T15:59:11;6.30;99.90
45685;DHT22;46836;48.388;16.210;2023-02-01T16:01:39;6.30;99.90
45685;DHT22;46836;48.388;16.210;2023-02-01T16:06:51;6.20;99.90
45685;DHT22;46836;48.388;16.210;2023-02-01T16:09:24;6.20;99.90
45685;DHT22;46836;48.388;16.210;2023-02-01T16:12:00;6.30;99.90
45685;DHT22;46836;48.388;16.210;2023-02-01T16:14:27;6.30;99.90
45685;DHT22;46836;48.388;16.210;2023-02-01T16:16:57;6.30;99.90
45685;DHT22;46836;48.388;16.210;2023-02-01T16:19:25;6.30;99.90
45685;DHT22;46836;48.388;16.210;2023-02-01T16:21:55;6.30;99.90
45685;DHT22;46836;48.388;16.210;2023-02-01T16:24:23;6.30;99.90
45685;DHT22;46836;48.388;16.210;2023-02-01T16:26:53;6.30;99.90
45685;DHT22;46836;48.388;16.210;2023-02-01T16:29:20;6.30;99.90
45685;DHT22;46836;48.388;16.210;2023-02-01T16:31:48;6.30;99.90
45685;DHT22;46836;48.388;16.210;2023-02-01T16:34:18;6.40;99.90
45685;DHT22;46836;48.388;16.210;2023-02-01T16:36:49;6.40;99.90
45685;DHT22;46836;48.388;16.210;2023-02-01T16:39:21;6.40;99.90
45685;DHT22;46836;48.388;16.210;2023-02-01T16:41:50;6.40;99.90
45685;DHT22;46836;48.388;16.210;2023-02-01T16:44:17;6.40;99.90
45685;DHT22;46836;48.388;16.210;2023-02-01T16:46:47;6.40;99.90
45685;DHT22;46836;48.388;16.210;2023-02-01T16:49:24;6.40;99.90
45685;DHT22;46836;48.388;16.210;2023-02-01T16:51:56;6.40;99.90
45685;DHT22;46836;48.388;16.210;2023-02-01T16:54:24;6.30;99.90
45685;DHT22;46836;48.388;16.210;2023-02-01T16:56:53;6.30;99.90
45685;DHT22;46836;48.388;16.210;2023-02-01T16:59:21;6.30;99.90
45685;DHT22;46836;48.388;16.210;2023-02-01T17:01:48;6.30;99.90
45685;DHT22;46836;48.388;16.210;2023-02-01T17:04:16;6.20;99.90
45685;DHT22;46836;48.388;16.210;2023-02-01T17:06:44;6.20;99.90
45685;DHT22;46836;48.388;16.210;2023-02-01T17:09:14;6.20;99.90
45685;DHT22;46836;48.388;16.210;2023-02-01T17:11:41;6.10;99.90
45685;DHT22;46836;48.388;16.210;2023-02-01T17:14:17;6.00;99.90
45685;DHT22;46836;48.388;16.210;2023-02-01T17:16:47;6.00;99.90
45685;DHT22;46836;48.388;16.210;2023-02-01T17:19:18;5.90;99.90
45685;DHT22;46836;48.388;16.210;2023-02-01T17:21:53;5.90;99.90
45685;DHT22;46836;48.388;16.210;2023-02-01T17:24:24;5.90;99.90
45685;DHT22;46836;48.388;16.210;2023-02-01T17:27:05;5.90;99.90
45685;DHT22;46836;48.388;16.210;2023-02-01T17:29:34;5.80;99.90
45685;DHT22;46836;48.388;16.210;2023-02-01T17:32:02;5.80;99.90
45685;DHT22;46836;48.388;16.210;2023-02-01T17:34:32;5.90;99.90
45685;DHT22;46836;48.388;16.210;2023-02-01T17:37:00;5.90;99.90
45685;DHT22;46836;48.388;16.210;2023-02-01T17:39:30;5.90;99.90
45685;DHT22;46836;48.388;16.210;2023-02-01T17:42:17;5.90;99.90
45685;DHT22;46836;48.388;16.210;2023-02-01T17:44:45;6.00;99.90
45685;DHT22;46836;48.388;16.210;2023-02-01T17:47:14;6.00;99.90
45685;DHT22;46836;48.388;16.210;2023-02-01T17:49:41;6.00;99.90
45685;DHT22;46836;48.388;16.210;2023-02-01T17:52:15;6.00;99.90
45685;DHT22;46836;48.388;16.210;2023-02-01T17:54:44;6.00;99.90
45685;DHT22;46836;48.388;16.210;2023-02-01T17:57:14;6.00;99.90
45685;DHT22;46836;48.388;16.210;2023-02-01T17:59:43;5.90;99.90
45685;DHT22;46836;48.388;16.210;2023-02-01T18:02:20;5.90;99.90
45685;DHT22;46836;48.388;16.210;2023-02-01T18:04:49;6.00;99.90
45685;DHT22;46836;48.388;16.210;2023-02-01T18:07:17;6.00;99.90
45685;DHT22;46836;48.388;16.210;2023-02-01T18:09:46;6.00;99.90
45685;DHT22;46836;48.388;16.210;2023-02-01T18:12:22;6.00;99.90
45685;DHT22;46836;48.388;16.210;2023-02-01T18:14:53;6.00;99.90
45685;DHT22;46836;48.388;16.210;2023-02-01T18:17:21;6.00;99.90
45685;DHT22;46836;48.388;16.210;2023-02-01T18:19:48;6.00;99.90
45685;DHT22;46836;48.388;16.210;2023-02-01T18:22:18;6.00;99.90
45685;DHT22;46836;48.388;16.210;2023-02-01T18:24:48;6.00;99.90
45685;DHT22;46836;48.388;16.210;2023-02-01T18:27:16;6.00;99.90
45685;DHT22;46836;48.388;16.210;2023-02-01T18:29:44;6.00;99.90
45685;DHT22;46836;48.388;16.210;2023-02-01T18:32:12;6.00;99.90
45685;DHT22;46836;48.388;16.210;2023-02-01T18:34:40;6.00;99.90
45685;DHT22;46836;48.388;16.210;2023-02-01T18:37:08;6.00;99.90
45685;DHT22;46836;48.388;16.210;2023-02-01T18:39:35;6.00;99.90
45685;DHT22;46836;48.388;16.210;2023-02-01T18:42:07;6.00;99.90
45685;DHT22;46836;48.388;16.210;2023-02-01T18:44:37;6.00;99.90
45685;DHT22;46836;48.388;16.210;2023-02-01T18:47:04;6.00;99.90
45685;DHT22;46836;48.388;16.210;2023-02-01T18:49:33;6.00;99.90
45685;DHT22;46836;48.388;16.210;2023-02-01T18:52:03;6.10;99.90
45685;DHT22;46836;48.388;16.210;2023-02-01T18:54:33;6.10;99.90